• Join FlightAware (Why Join?)
  • Login
  • US Flag 
12:28PM EDT


 

Airport Tracker/Info


-or-


 

Live Flight TrackerFlight Track Log ✈ JBU24 ✈ 14-May-2013 ✈ KJFK - KSYR

Flight Track Log - Related Links

Times and Time Zones

All times are in EDT time to prevent confusion due to time zone crossing. See the JBU24 flight status page for this flight to view local times or setup timezone preferences in your user account.

Time Position Orientation Groundspeed Altitude Reporting Facility
EDT Latitude Longitude Course Direction KTS MPH feet Rate Location/Type
05:14PM 40.5667 -73.8000 323° Northwest 204 235 3,100  Level New York TRACON
05:15PM 40.5833 -73.7167 75° East 236 272 6,500 3,300 Climbing New York TRACON
05:16PM 40.8487 -74.0646 311° West  Level FlightAware Approximate
05:16PM 40.6167 -73.6333 62° Northeast 242 278 9,700  Level New York TRACON
05:17PM 40.9006 -74.1425 311° West  Level FlightAware Approximate
05:17PM 40.6667 -73.5500 52° Northeast 289 333 12,300  Level New York TRACON
05:18PM 40.9556 -74.2167 316° Northwest  Level FlightAware Approximate
05:18PM 40.7333 -73.5333 11° North 283 326 14,900  Level New York TRACON
05:19PM 41.0120 -74.2891 316° Northwest  Level FlightAware Approximate
05:19PM 40.8167 -73.5333 360° North 288 331 17,000  Level New York TRACON
05:20PM 41.0648 -74.3648 323° Northwest  Level FlightAware Approximate
05:20PM 40.8833 -73.6000 323° Northwest 341 392 17,000  Level New York TRACON
05:21PM 40.9333 -73.7000 304° West 336 387 17,000  Level New York TRACON
05:22PM 41.0000 -73.8167 307° West 336 387 17,000  Level New York TRACON
05:23PM 41.0500 -73.9167 304° West 332 382 17,000  Level New York TRACON
05:24PM 41.0833 -74.0167 294° West 333 383 17,000  Level New York TRACON
05:27PM 41.1475 -74.2650 289° West 336 387 17,000  Level New York Center
05:28PM 41.1811 -74.3906 290° West 331 381 17,000  Level New York Center
05:29PM 41.2050 -74.4939 287° West 331 381 17,000 540 Level New York Center
05:30PM 41.2469 -74.6122 295° West 331 381 18,100 1,500 Climbing New York Center
05:31PM 41.3042 -74.7067 309° West 330 380 20,000 900 Climbing New York Center
05:32PM 41.3614 -74.8011 309° West 330 380 20,000  Level New York Center
05:33PM 41.4186 -74.8931 310° West 330 380 20,000  Level New York Center
05:34PM 41.4778 -74.9881 310° West 330 380 20,000  Level New York Center
05:35PM 41.5328 -75.0831 308° West 330 380 20,000  Level New York Center
05:36PM 41.5917 -75.1783 310° West 330 380 20,000  Level New York Center
05:37PM 41.6486 -75.2736 309° West 330 380 20,000  Level New York Center
05:38PM 41.7053 -75.3692 308° West 330 380 20,000  Level New York Center
05:39PM 41.7619 -75.4619 309° West 330 380 20,000  Level New York Center
05:40PM 41.8183 -75.5606 308° West 330 380 20,000  Level New York Center
05:41PM 41.8750 -75.6539 309° West 330 380 20,000  Level New York Center
05:42PM 41.9314 -75.7528 307° West 330 380 20,000  Level New York Center
05:43PM 41.9875 -75.8492 308° West 335 386 20,000 -120 Level New York Center
05:44PM 42.0439 -75.9456 308° West 335 386 19,800 -900 Descending New York Center
05:45PM 42.0981 -76.0392 308° West 335 386 18,300 -1,560 Descending New York Center
05:46PM 42.1631 -76.1228 316° Northwest 330 380 16,800 -1,620 Descending New York Center
05:47PM 42.2522 -76.1300 357° North 302 348 15,200 -1,440 Descending New York Center
05:48PM 42.3336 -76.1228 North 302 348 13,900 -1,560 Descending New York Center
05:49PM 42.4539 -76.1042 North 311 358 11,800 -1,380 Descending Boston Center
05:50PM 42.5292 -76.0975 North 311 358 11,000 -600 Descending Boston Center
05:51PM 42.6150 -76.0828 North 299 344 10,700 -1,140 Descending Boston Center
05:52PM 42.7014 -76.0594 11° North 268 308 8,600 -1,860 Descending Boston Center
05:53PM 42.7833 -76.0389 10° North 274 315 6,700 -1,620 Descending Boston Center
05:54PM 42.8567 -76.0261 North 271 312 5,200 -1,440 Descending Boston Center
05:55PM 42.9300 -76.0133 North 264 304 3,800 -1,440 Descending Boston Center
05:56PM 43.0056 -75.9981 North 255 293 2,400 -960 Descending Boston Center
05:57PM 43.0608 -76.0325 336° Northwest 200 230 1,800 -780 Descending Boston Center
05:58PM 43.0967 -76.0800 316° Northwest 128 147 700 -1,020 Descending Boston Center